KCON/CON METAR and TAF weather

Enter ICAO airport designator
Station Type Date Time Source
KCON METAR 2019/04/26 03:51 UTC NOAA

KCON 260351Z AUTO 00000KT 10SM CLR 07/03 A2996 RMK AO2 SLP146 T00720033 $


Station Type Date Time Source
KCON Decoded METAR 2019/04/26 03:51 UTC NOAA

Concord, Concord Municipal Airport, NH, United States (KCON) 43-11-43N 071-30-04W 103M
Apr 25, 2019 - 11:51 PM EDT / 2019.04.26 0351 UTC
Wind: Calm:0
Visibility: 10 mile(s):0
Sky conditions: clear
Temperature: 45.0 F (7.2 C)
Dew Point: 37.9 F (3.3 C)
Relative Humidity: 76%
Pressure (altimeter): 29.96 in. Hg (1014 hPa)
ob: KCON 260351Z AUTO 00000KT 10SM CLR 07/03 A2996 RMK AO2 SLP146 T00720033
cycle: 4

Station Type Date Time Source
KCON TAF 2019/04/25 18:42 UTC NOAA

TAF KCON 251739Z 2518/2618 25009KT P6SM SCT045
FM261200 00000KT P6SM OVC025
FM261400 VRB03KT 6SM -RA OVC015
FM261600 00000KT 3SM -RA OVC010

Example: see airport list